Time;durP1;ratioP1;P1;durP2;ratioP2;P2;SDS_P1;SDS_P2;PMS_P1;PMS_P2;Temp;Humidity;BMP_temperature;BMP_pressure;BME280_temperature;BME280_humidity;BME280_pressure;Samples;Min_cycle;Max_cycle;Signal;HPM_P1;HPM_P2
2023/03/15 00:00:44;;;;;;;3.28;2.05;;;;;;;2.23;95.42;101136.97;4932964;28;20054;-74
2023/03/15 00:03:10;;;;;;;1.98;1.77;;;;;;;2.23;95.27;101142.31;4968514;28;20133;-74
2023/03/15 00:05:36;;;;;;;4.35;1.33;;;;;;;2.19;95.55;101139.78;4956208;28;20774;-74
2023/03/15 00:08:02;;;;;;;3.00;1.58;;;;;;;2.14;95.25;101123.84;4950122;29;20035;-74
2023/03/15 00:10:28;;;;;;;3.17;1.88;;;;;;;2.17;96.19;101118.38;4947709;29;20102;-74
2023/03/15 00:12:53;;;;;;;2.67;1.73;;;;;;;2.16;95.87;101123.81;4948356;28;20114;-74
2023/03/15 00:15:19;;;;;;;2.92;2.15;;;;;;;2.16;95.68;101124.69;4947882;29;20106;-75
2023/03/15 00:17:44;;;;;;;6.07;3.10;;;;;;;2.14;96.07;101118.47;4948027;29;20127;-74
2023/03/15 00:20:11;;;;;;;4.00;2.30;;;;;;;2.14;95.95;101113.09;4948795;28;20043;-74
2023/03/15 00:22:36;;;;;;;3.33;2.30;;;;;;;2.17;95.83;101114.81;4948680;28;20036;-74
2023/03/15 00:25:02;;;;;;;6.55;2.10;;;;;;;2.14;96.43;101125.66;4948955;29;20058;-74
2023/03/15 00:27:27;;;;;;;3.38;1.92;;;;;;;2.14;96.51;101125.66;4947545;28;20042;-74
2023/03/15 00:29:53;;;;;;;2.55;1.35;;;;;;;2.14;96.01;101128.34;4948781;28;20050;-74
2023/03/15 00:32:18;;;;;;;4.63;1.67;;;;;;;2.15;96.24;101124.75;4949048;29;20038;-75
2023/03/15 00:34:47;;;;;;;2.25;1.30;;;;;;;2.16;95.94;101123.81;4931553;29;20243;-74
2023/03/15 00:37:15;;;;;;;3.70;1.65;;;;;;;2.17;95.99;101136.28;4946229;29;20507;-74
2023/03/15 00:39:44;;;;;;;2.78;1.60;;;;;;;2.14;96.60;101133.69;4931031;29;20126;-75
2023/03/15 00:42:10;;;;;;;3.00;1.27;;;;;;;2.14;96.94;101123.84;4930046;28;20035;-74
2023/03/15 00:44:36;;;;;;;3.65;1.27;;;;;;;2.15;97.06;101125.63;4948618;29;20510;-75
2023/03/15 00:47:02;;;;;;;8.52;1.55;;;;;;;2.07;97.25;101111.56;4959226;28;20038;-75
2023/03/15 00:49:27;;;;;;;2.67;1.40;;;;;;;2.14;97.35;101120.28;4947611;28;20058;-75
2023/03/15 00:51:56;;;;;;;4.10;1.60;;;;;;;2.12;97.29;101130.22;4930877;29;20027;-75
2023/03/15 00:54:22;;;;;;;11.18;1.88;;;;;;;2.11;97.88;101123.09;4948831;29;20035;-75
2023/03/15 00:56:48;;;;;;;5.93;2.10;;;;;;;2.08;98.44;101126.75;4930075;28;20027;-75
2023/03/15 00:59:13;;;;;;;3.22;1.85;;;;;;;2.12;97.90;101130.22;4946686;28;20214;-75
2023/03/15 01:01:43;;;;;;;4.70;1.73;;;;;;;2.11;98.67;101136.50;4947064;29;20035;-74
2023/03/15 01:04:10;;;;;;;3.38;1.70;;;;;;;2.11;98.75;101133.81;4941574;28;20057;-75
2023/03/15 01:06:36;;;;;;;5.70;2.00;;;;;;;2.12;98.75;101130.22;4947824;28;20070;-74
2023/03/15 01:09:02;;;;;;;2.63;1.80;;;;;;;2.13;97.97;101137.31;4948656;29;20113;-73
2023/03/15 01:11:28;;;;;;;3.50;1.60;;;;;;;2.17;98.50;101136.28;4945931;29;20039;-74
2023/03/15 01:13:56;;;;;;;2.55;1.70;;;;;;;2.20;98.92;101137.09;4946594;28;20035;-74
2023/03/15 01:16:22;;;;;;;4.55;1.70;;;;;;;2.22;98.65;101142.38;4946601;29;20683;-74
2023/03/15 01:18:48;;;;;;;6.88;2.08;;;;;;;2.24;98.88;101136.06;4948174;28;20043;-75
2023/03/15 01:21:14;;;;;;;5.10;2.47;;;;;;;2.26;98.95;101139.56;4947519;28;20027;-74
2023/03/15 01:23:40;;;;;;;4.97;2.20;;;;;;;2.28;99.29;101148.44;4946500;29;20046;-74
2023/03/15 01:26:10;;;;;;;7.28;2.10;;;;;;;2.30;99.41;101153.75;4945523;28;20050;-73
2023/03/15 01:28:35;;;;;;;3.20;2.33;;;;;;;2.30;99.90;101148.38;4943027;29;20642;-73
2023/03/15 01:31:02;;;;;;;9.88;3.03;;;;;;;2.28;100.00;101156.50;4946224;29;20055;-74
2023/03/15 01:33:28;;;;;;;8.00;2.67;;;;;;;2.29;100.00;101152.88;4948511;29;20077;-74
2023/03/15 01:35:58;;;;;;;5.03;3.10;;;;;;;2.29;100.00;101160.94;4943154;29;20054;-74
2023/03/15 01:38:24;;;;;;;11.02;3.80;;;;;;;2.29;100.00;101149.31;4947213;29;20031;-74
2023/03/15 01:40:49;;;;;;;6.38;3.88;;;;;;;2.32;100.00;101162.63;4945751;29;20031;-74
2023/03/15 01:43:21;;;;;;;6.30;4.00;;;;;;;2.34;100.00;101167.97;4945823;28;20031;-73
2023/03/15 01:46:06;;;;;;;8.68;5.35;;;;;;;2.35;100.00;101172.41;4950138;28;20133;-74
2023/03/15 01:48:43;;;;;;;11.25;6.47;;;;;;;2.36;100.00;101166.97;4946341;29;20066;-73
2023/03/15 01:51:23;;;;;;;14.65;7.03;;;;;;;2.35;100.00;101161.66;4942250;28;20051;-74
2023/03/15 01:54:02;;;;;;;13.73;7.40;;;;;;;2.35;100.00;101164.34;4946413;29;20035;-75
2023/03/15 01:56:31;;;;;;;13.07;7.20;;;;;;;2.32;100.00;101176.03;4945627;29;20119;-75
2023/03/15 01:58:59;;;;;;;14.98;7.55;;;;;;;2.31;100.00;101174.28;4946493;28;20504;-75
2023/03/15 02:01:25;;;;;;;20.70;8.88;;;;;;;2.32;100.00;101180.53;4945100;29;20051;-75
2023/03/15 02:03:57;;;;;;;14.27;7.80;;;;;;;2.32;100.00;101185.91;4945934;28;20209;-75
2023/03/15 02:06:26;;;;;;;13.52;8.50;;;;;;;2.33;100.00;101187.66;4945737;28;20111;-74
2023/03/15 02:08:58;;;;;;;14.13;9.27;;;;;;;2.34;100.00;101187.63;4946027;29;20051;-74
2023/03/15 02:11:27;;;;;;;17.17;9.57;;;;;;;2.35;100.00;101189.38;4945487;29;20468;-75
2023/03/15 02:13:56;;;;;;;14.68;9.00;;;;;;;2.38;100.00;101199.13;4944630;29;20031;-75
2023/03/15 02:16:23;;;;;;;15.55;9.75;;;;;;;2.39;100.00;101203.59;4946057;29;20112;-75
2023/03/15 02:18:57;;;;;;;16.85;10.35;;;;;;;2.37;100.00;101194.69;4946822;29;20121;-75
2023/03/15 02:21:42;;;;;;;18.92;11.15;;;;;;;2.40;100.00;101208.91;4943570;29;20125;-74
2023/03/15 02:24:22;;;;;;;22.98;11.13;;;;;;;2.41;100.00;101207.09;4945996;29;20359;-75
2023/03/15 02:26:53;;;;;;;19.85;11.23;;;;;;;2.38;100.00;101215.22;4928549;29;20082;-75
2023/03/15 02:29:20;;;;;;;20.95;11.13;;;;;;;2.37;100.00;101208.97;4947284;28;20086;-74
2023/03/15 02:31:47;;;;;;;25.98;11.00;;;;;;;2.38;100.00;101209.84;4945833;29;20031;-74
2023/03/15 02:34:13;;;;;;;18.92;10.55;;;;;;;2.34;100.00;101205.53;4947250;28;20082;-75
2023/03/15 02:36:39;;;;;;;19.88;11.07;;;;;;;2.33;100.00;101207.31;4945383;28;20046;-74
2023/03/15 02:39:16;;;;;;;18.58;10.52;;;;;;;2.34;100.00;101205.53;4947239;29;20035;-73
2023/03/15 02:41:48;;;;;;;19.42;10.10;;;;;;;2.36;100.00;101217.09;4943902;28;20392;-74
2023/03/15 02:44:19;;;;;;;18.70;10.95;;;;;;;2.35;100.00;101209.97;4947114;28;20447;-74
2023/03/15 02:46:48;;;;;;;19.10;10.95;;;;;;;2.36;100.00;101215.28;4947173;28;20070;-73
2023/03/15 02:49:20;;;;;;;21.70;11.30;;;;;;;2.35;100.00;101210.84;4944371;28;20098;-73
2023/03/15 02:51:46;;;;;;;16.00;10.52;;;;;;;2.36;100.00;101209.03;4946747;28;20183;-73
2023/03/15 02:54:12;;;;;;;18.20;10.30;;;;;;;2.37;100.00;101218.84;4945871;28;20183;-73
2023/03/15 02:56:37;;;;;;;15.60;9.55;;;;;;;2.36;99.87;101217.09;4944175;29;20043;-74
2023/03/15 02:59:03;;;;;;;16.52;10.10;;;;;;;2.32;100.00;101220.81;4944725;28;20036;-73
2023/03/15 03:01:30;;;;;;;22.98;10.80;;;;;;;2.29;100.00;101225.34;4960232;28;20047;-74
2023/03/15 03:03:55;;;;;;;20.52;9.88;;;;;;;2.28;100.00;101239.72;4948099;28;20383;-73
2023/03/15 03:06:21;;;;;;;20.88;10.30;;;;;;;2.23;100.00;101236.28;4946638;28;20031;-74
2023/03/15 03:08:46;;;;;;;16.25;8.93;;;;;;;2.24;100.00;101243.41;4945595;29;20407;-74
2023/03/15 03:11:15;;;;;;;13.73;9.18;;;;;;;2.20;100.00;101244.44;4944478;28;20038;-73
2023/03/15 03:13:42;;;;;;;13.98;7.90;;;;;;;2.18;100.00;101251.66;4948622;28;20106;-74
2023/03/15 03:16:08;;;;;;;9.70;6.20;;;;;;;2.15;100.00;101257.13;4948923;29;20347;-74
2023/03/15 03:18:34;;;;;;;11.30;7.03;;;;;;;2.12;100.00;101267.94;4948984;29;20035;-73
2023/03/15 03:21:03;;;;;;;14.50;7.10;;;;;;;2.07;100.00;101267.22;4946007;29;20035;-73
2023/03/15 03:23:30;;;;;;;11.40;6.75;;;;;;;1.99;100.00;101264.75;4949274;29;20510;-73
2023/03/15 03:25:57;;;;;;;11.02;6.40;;;;;;;1.92;99.99;101276.59;4948434;29;20035;-73
2023/03/15 03:28:25;;;;;;;12.48;6.95;;;;;;;1.86;99.82;101281.25;4947731;28;20078;-74
2023/03/15 03:30:52;;;;;;;10.98;6.80;;;;;;;1.80;99.51;101290.38;4948554;28;20038;-74
2023/03/15 03:33:18;;;;;;;13.77;6.43;;;;;;;1.72;99.79;101285.22;4948687;28;20071;-73
2023/03/15 03:35:46;;;;;;;9.82;6.53;;;;;;;1.63;99.82;101285.50;4932157;28;20035;-74
2023/03/15 03:38:12;;;;;;;9.52;6.30;;;;;;;1.61;99.68;101289.16;4932433;29;20035;-74
2023/03/15 03:40:40;;;;;;;10.52;6.72;;;;;;;1.53;99.71;101298.28;4932365;28;20118;-74
2023/03/15 03:43:07;;;;;;;12.75;6.63;;;;;;;1.50;99.95;101297.50;4947593;28;20126;-74
2023/03/15 03:45:33;;;;;;;9.77;5.30;;;;;;;1.44;99.61;101305.69;4948196;29;20049;-73
2023/03/15 03:47:59;;;;;;;10.27;6.15;;;;;;;1.40;100.00;101309.38;4917478;29;20121;-74
2023/03/15 03:50:25;;;;;;;10.55;5.97;;;;;;;1.32;100.00;101309.59;4938456;28;20554;-74
2023/03/15 03:52:51;;;;;;;11.57;6.25;;;;;;;1.25;100.00;101310.66;4948210;29;20038;-73
2023/03/15 03:55:23;;;;;;;11.30;6.00;;;;;;;1.18;100.00;101306.41;4932034;29;20761;-73
2023/03/15 03:57:49;;;;;;;14.40;6.72;;;;;;;1.13;100.00;101306.53;4947381;28;20479;-73
2023/03/15 04:00:26;;;;;;;15.23;6.95;;;;;;;1.08;100.00;101316.50;4948158;29;20166;-73
2023/03/15 04:02:52;;;;;;;15.45;6.88;;;;;;;1.06;100.00;101317.44;4948099;29;20050;-73
2023/03/15 04:05:18;;;;;;;10.90;6.10;;;;;;;0.99;100.00;101317.59;4956262;28;20027;-74
2023/03/15 04:07:44;;;;;;;15.52;7.13;;;;;;;0.94;100.00;101324.88;4947144;29;20042;-73
2023/03/15 04:10:14;;;;;;;12.32;6.45;;;;;;;0.89;100.00;101328.59;4947073;29;20062;-73
2023/03/15 04:12:42;;;;;;;12.00;5.95;;;;;;;0.84;100.00;101334.06;4949969;28;20034;-73
2023/03/15 04:15:10;;;;;;;11.57;7.05;;;;;;;0.80;100.00;101345.75;4951090;28;20046;-73
2023/03/15 04:17:39;;;;;;;10.02;6.35;;;;;;;0.76;100.00;101344.94;4951356;28;20031;-73
2023/03/15 04:20:06;;;;;;;10.88;6.72;;;;;;;0.71;100.00;101354.88;4961068;28;20083;-73
2023/03/15 04:22:35;;;;;;;11.45;6.40;;;;;;;0.68;100.00;101346.91;4947670;28;20539;-73
2023/03/15 04:25:19;;;;;;;13.48;7.25;;;;;;;0.66;100.00;101363.97;4946446;28;20724;-73
2023/03/15 04:28:01;;;;;;;14.13;7.90;;;;;;;0.62;100.00;101357.78;4937366;28;20125;-73
2023/03/15 04:30:41;;;;;;;12.73;7.00;;;;;;;0.57;100.00;101362.38;4952877;28;20042;-73
2023/03/15 04:33:30;;;;;;;13.13;7.07;;;;;;;0.53;100.00;101359.78;4949415;29;20086;-74
2023/03/15 04:36:05;;;;;;;14.25;7.97;;;;;;;0.55;100.00;101368.66;4948488;28;20376;-73
2023/03/15 04:38:47;;;;;;;16.30;8.68;;;;;;;0.49;100.00;101377.72;4947461;29;20113;-74
2023/03/15 04:41:27;;;;;;;15.98;7.75;;;;;;;0.46;100.00;101378.66;4948089;28;20038;-73
2023/03/15 04:44:04;;;;;;;15.40;7.78;;;;;;;0.45;100.00;101384.03;4947187;28;20503;-73
2023/03/15 04:46:43;;;;;;;17.92;8.85;;;;;;;0.39;100.00;101381.50;4947278;28;20034;-73
2023/03/15 04:49:26;;;;;;;14.50;7.78;;;;;;;0.37;100.00;101384.19;4931344;28;20206;-73
2023/03/15 04:52:06;;;;;;;16.20;9.18;;;;;;;0.34;100.00;101392.31;4948276;28;20035;-73
2023/03/15 04:54:48;;;;;;;14.95;8.70;;;;;;;0.33;100.00;101398.59;4933311;28;20041;-73
2023/03/15 04:57:13;;;;;;;15.45;8.00;;;;;;;0.29;100.00;101396.88;4947615;28;20039;-73
2023/03/15 05:00:10;;;;;;;13.52;7.43;;;;;;;0.24;100.00;101398.78;4943498;29;20121;-73
2023/03/15 05:02:54;;;;;;;12.52;6.82;;;;;;;0.23;100.00;101407.69;4947312;28;20082;-73
2023/03/15 05:05:46;;;;;;;15.02;7.82;;;;;;;0.23;100.00;101415.72;4946614;28;20179;-73
2023/03/15 05:08:20;;;;;;;15.10;6.75;;;;;;;0.21;100.00;101414.88;4947058;29;20495;-73
2023/03/15 05:11:13;;;;;;;13.10;7.25;;;;;;;0.19;100.00;101414.94;4944472;29;20506;-74
2023/03/15 05:13:57;;;;;;;14.90;7.25;;;;;;;0.18;100.00;101415.81;4949243;28;20074;-73
2023/03/15 05:16:42;;;;;;;18.83;7.22;;;;;;;0.19;100.00;101420.28;4948653;29;20414;-74
2023/03/15 05:19:16;;;;;;;11.98;6.95;;;;;;;0.21;100.00;101423.78;4946542;28;20484;-73
2023/03/15 05:22:13;;;;;;;16.20;6.22;;;;;;;0.22;100.00;101422.00;4946296;28;20047;-73
2023/03/15 05:25:05;;;;;;;12.75;6.97;;;;;;;0.19;100.00;101422.97;4944818;28;20093;-73
2023/03/15 05:27:51;;;;;;;13.57;6.80;;;;;;;0.17;100.00;101427.44;4944063;28;20485;-72
2023/03/15 05:30:43;;;;;;;13.48;6.82;;;;;;;0.16;100.00;101432.84;4924389;29;20067;-72
2023/03/15 05:33:20;;;;;;;13.40;7.45;;;;;;;0.13;100.00;101438.22;4944953;29;20340;-72
2023/03/15 05:35:57;;;;;;;14.13;6.57;;;;;;;0.08;100.00;101434.78;4945169;28;20031;-72
2023/03/15 05:38:59;;;;;;;12.65;6.93;;;;;;;0.05;100.00;101438.41;4881459;29;20133;-72
2023/03/15 05:41:37;;;;;;;12.25;6.03;;;;;;;0.03;100.00;101439.34;4921516;28;20039;-72
2023/03/15 05:44:21;;;;;;;10.65;6.22;;;;;;;0.01;100.00;101444.72;4947635;28;20398;-72
2023/03/15 05:47:03;;;;;;;10.68;5.55;;;;;;;-0.01;100.00;101451.88;4946470;28;20064;-72
2023/03/15 05:49:46;;;;;;;;;;;;;;;0.00;100.00;101451.00;4947959;28;20061;-72
2023/03/15 05:52:34;;;;;;;12.70;6.82;;;;;;;-0.08;100.00;101451.13;4944289;28;20020;-72
2023/03/15 05:55:09;;;;;;;13.20;6.30;;;;;;;-0.06;100.00;101464.44;4945330;28;20494;-72
2023/03/15 05:57:50;;;;;;;11.82;6.50;;;;;;;-0.09;100.00;101460.06;4931294;28;20035;-72
2023/03/15 06:00:25;;;;;;;11.10;6.35;;;;;;;-0.11;100.00;101466.34;4945808;29;20146;-72
2023/03/15 06:02:56;;;;;;;11.57;5.88;;;;;;;-0.14;100.00;101464.63;4946132;28;20071;-72
2023/03/15 06:05:35;;;;;;;11.77;6.03;;;;;;;-0.12;99.98;101473.47;4930331;28;20085;-71
2023/03/15 06:08:03;;;;;;;10.98;5.55;;;;;;;-0.11;99.96;101487.72;4914457;29;20049;-72
2023/03/15 06:10:28;;;;;;;13.75;5.60;;;;;;;-0.09;100.00;101489.47;4930140;29;20031;-73
2023/03/15 06:12:55;;;;;;;13.57;7.38;;;;;;;-0.07;100.00;101489.44;4931077;29;20416;-72
2023/03/15 06:15:22;;;;;;;12.15;6.78;;;;;;;0.01;100.00;101494.66;4946202;29;20031;-72
2023/03/15 06:17:49;;;;;;;14.98;7.07;;;;;;;0.04;100.00;101498.13;4946173;29;20118;-72
2023/03/15 06:20:15;;;;;;;17.15;7.45;;;;;;;0.10;100.00;101494.50;4944347;29;20386;-72
2023/03/15 06:22:40;;;;;;;13.02;6.70;;;;;;;0.17;100.00;101496.13;4932025;29;20054;-72
2023/03/15 06:25:17;;;;;;;12.10;6.82;;;;;;;0.28;100.00;101510.19;4914804;28;20428;-72
2023/03/15 06:27:42;;;;;;;11.48;6.75;;;;;;;0.34;100.00;101509.19;4944368;28;20039;-73
2023/03/15 06:30:08;;;;;;;12.70;6.88;;;;;;;0.39;100.00;101516.19;4933165;28;20423;-73
2023/03/15 06:32:33;;;;;;;11.68;6.85;;;;;;;0.42;100.00;101521.50;4960529;28;20039;-73
2023/03/15 06:34:59;;;;;;;12.05;6.55;;;;;;;0.52;100.00;101532.91;4946248;28;20448;-74
2023/03/15 06:37:24;;;;;;;11.63;6.30;;;;;;;0.65;100.00;101537.09;4947275;28;20398;-74
2023/03/15 06:39:50;;;;;;;17.45;6.38;;;;;;;0.76;100.00;101540.44;4947885;28;20111;-74
2023/03/15 06:42:16;;;;;;;10.70;6.88;;;;;;;0.88;100.00;101541.06;4947782;28;20050;-73
2023/03/15 06:44:43;;;;;;;13.70;6.57;;;;;;;1.05;100.00;101546.09;4950083;28;20050;-74
2023/03/15 06:47:09;;;;;;;14.45;7.03;;;;;;;1.33;100.00;101554.38;4946873;28;20043;-74
2023/03/15 06:49:36;;;;;;;11.50;6.90;;;;;;;1.70;100.00;101546.34;4949123;28;20484;-74
2023/03/15 06:52:03;;;;;;;11.50;6.50;;;;;;;1.85;99.69;101554.00;4948356;29;20043;-73
2023/03/15 06:54:29;;;;;;;11.80;6.30;;;;;;;1.95;99.22;101555.53;4933928;29;20050;-74
2023/03/15 06:56:55;;;;;;;13.48;7.13;;;;;;;1.95;99.06;101560.91;4946430;28;20043;-75
2023/03/15 06:59:21;;;;;;;13.82;6.72;;;;;;;1.89;99.32;101565.56;4944323;28;20050;-74
2023/03/15 07:01:46;;;;;;;11.75;7.10;;;;;;;1.78;99.03;101564.03;4933778;29;20050;-74
2023/03/15 07:04:12;;;;;;;10.93;6.38;;;;;;;1.74;98.43;101572.19;4948794;28;20122;-74
2023/03/15 07:06:37;;;;;;;11.70;7.05;;;;;;;1.67;98.71;101581.28;4947958;28;20412;-75
2023/03/15 07:09:04;;;;;;;13.82;7.28;;;;;;;1.63;99.25;101587.63;4971521;28;20605;-75
2023/03/15 07:11:30;;;;;;;10.50;6.78;;;;;;;1.65;98.99;101588.50;4949649;28;20551;-74
2023/03/15 07:13:55;;;;;;;13.02;7.38;;;;;;;2.18;99.88;101589.84;4950053;28;20146;-74
2023/03/15 07:16:20;;;;;;;13.57;7.55;;;;;;;3.01;98.17;101599.19;4948912;28;20866;-74
2023/03/15 07:18:46;;;;;;;11.68;6.32;;;;;;;3.56;95.32;101596.66;4950489;29;20408;-74
2023/03/15 07:21:11;;;;;;;12.80;7.22;;;;;;;3.51;92.82;101604.88;4948413;28;20125;-74
2023/03/15 07:23:36;;;;;;;10.50;6.50;;;;;;;3.31;93.60;101608.19;4950074;29;20042;-74
2023/03/15 07:26:02;;;;;;;12.13;6.95;;;;;;;3.14;94.01;101613.16;4949725;29;20131;-74
2023/03/15 07:28:28;;;;;;;12.55;7.15;;;;;;;3.07;94.95;101619.63;4946968;29;20498;-74
2023/03/15 07:30:56;;;;;;;11.60;6.03;;;;;;;3.03;95.94;101621.56;4948298;29;20570;-74
2023/03/15 07:33:23;;;;;;;11.77;6.85;;;;;;;3.00;95.44;101618.94;4950005;29;20352;-74
2023/03/15 07:35:50;;;;;;;11.07;6.95;;;;;;;3.01;95.17;101627.88;4939933;28;20039;-74
2023/03/15 07:38:16;;;;;;;14.70;6.93;;;;;;;3.02;95.87;101618.88;4949984;29;20039;-74
2023/03/15 07:40:41;;;;;;;13.10;6.65;;;;;;;3.17;95.76;101622.94;4948798;29;20247;-74
2023/03/15 07:43:06;;;;;;;10.88;6.93;;;;;;;3.52;95.11;101629.97;4947348;28;20463;-74
2023/03/15 07:45:33;;;;;;;12.15;6.93;;;;;;;4.22;93.63;101624.13;4948813;29;20043;-74
2023/03/15 07:47:59;;;;;;;11.20;7.20;;;;;;;4.77;91.37;101638.38;4948981;29;20019;-74
2023/03/15 07:50:25;;;;;;;13.13;7.85;;;;;;;5.21;90.14;101646.66;4949365;28;20035;-74
2023/03/15 07:52:51;;;;;;;11.93;7.63;;;;;;;5.66;87.78;101646.72;4949167;28;20066;-74
2023/03/15 07:55:16;;;;;;;9.77;6.72;;;;;;;6.04;86.99;101652.44;4948616;29;20043;-74
2023/03/15 07:57:41;;;;;;;8.38;6.15;;;;;;;6.16;85.54;101645.69;4948163;28;20038;-74
2023/03/15 08:00:08;;;;;;;11.30;6.93;;;;;;;6.11;84.71;101657.56;4947316;29;20415;-74
2023/03/15 08:02:37;;;;;;;10.13;6.25;;;;;;;5.91;84.56;101678.16;4949925;29;20040;-74
2023/03/15 08:05:03;;;;;;;9.82;5.82;;;;;;;5.49;84.64;101677.06;4947471;28;20081;-73
2023/03/15 08:07:29;;;;;;;8.43;5.60;;;;;;;5.40;87.67;101680.09;4949513;28;20395;-73
2023/03/15 08:09:56;;;;;;;12.07;6.03;;;;;;;5.45;87.30;101674.53;4956329;28;20034;-74
2023/03/15 08:12:22;;;;;;;9.15;5.93;;;;;;;5.61;89.32;101686.50;4967127;28;20323;-74
2023/03/15 08:14:48;;;;;;;9.88;5.30;;;;;;;5.78;88.00;101692.16;4949382;28;20028;-74
2023/03/15 08:17:15;;;;;;;7.55;5.43;;;;;;;5.98;88.15;101694.09;4949271;29;20035;-74
2023/03/15 08:19:40;;;;;;;6.32;5.07;;;;;;;6.01;87.62;101693.94;4947445;28;20103;-74
2023/03/15 08:22:06;;;;;;;9.75;4.78;;;;;;;5.97;85.65;101695.03;4948765;28;20051;-73
2023/03/15 08:24:32;;;;;;;6.07;4.28;;;;;;;5.79;83.53;101702.00;4947793;28;20428;-74
2023/03/15 08:26:57;;;;;;;10.95;4.85;;;;;;;5.85;88.74;101695.47;4947035;29;20043;-74
2023/03/15 08:29:23;;;;;;;7.18;4.63;;;;;;;5.93;86.11;101704.19;4947841;28;20035;-73
2023/03/15 08:31:48;;;;;;;6.35;3.92;;;;;;;5.93;85.13;101709.59;4947691;29;20038;-74
2023/03/15 08:34:14;;;;;;;5.78;2.90;;;;;;;6.02;85.82;101716.47;4947530;28;20026;-74
2023/03/15 08:36:40;;;;;;;6.72;3.40;;;;;;;6.02;82.20;101713.78;4946840;28;20039;-74
2023/03/15 08:39:06;;;;;;;6.53;3.10;;;;;;;6.08;85.09;101716.22;4947597;29;20035;-73
2023/03/15 08:41:33;;;;;;;6.63;2.53;;;;;;;6.02;81.05;101721.88;4947971;29;20035;-73
2023/03/15 08:43:59;;;;;;;6.32;2.90;;;;;;;5.96;81.11;101724.78;4949201;28;20039;-73
2023/03/15 08:46:26;;;;;;;5.45;2.72;;;;;;;5.88;82.91;101725.94;4948839;29;20170;-73
2023/03/15 08:48:52;;;;;;;4.32;2.83;;;;;;;6.00;81.83;101727.31;4947087;29;20156;-73
2023/03/15 08:51:18;;;;;;;5.53;2.00;;;;;;;6.20;82.61;101722.94;4946679;28;20517;-74
2023/03/15 08:53:44;;;;;;;4.57;2.22;;;;;;;6.18;80.67;101733.81;4948380;28;20388;-74
2023/03/15 08:56:10;;;;;;;5.95;2.70;;;;;;;6.05;77.13;101730.72;4946469;29;20114;-73
2023/03/15 08:58:35;;;;;;;4.40;2.72;;;;;;;5.98;80.37;101741.84;4947723;28;20066;-73
2023/03/15 09:01:01;;;;;;;6.63;2.80;;;;;;;6.17;81.48;101736.59;4947602;29;20499;-73
2023/03/15 09:03:26;;;;;;;8.15;2.25;;;;;;;6.42;81.39;101734.63;4949985;28;20038;-74
2023/03/15 09:05:57;;;;;;;6.88;2.67;;;;;;;6.54;81.05;101742.25;4955236;28;20037;-73
2023/03/15 09:08:24;;;;;;;5.43;1.95;;;;;;;6.79;81.29;101742.09;4948249;29;20363;-74
2023/03/15 09:10:56;;;;;;;5.22;2.42;;;;;;;6.99;79.14;101741.22;4947266;28;20093;-73
2023/03/15 09:13:22;;;;;;;8.00;2.45;;;;;;;7.00;79.13;101742.16;4947283;28;20192;-73
2023/03/15 09:15:50;;;;;;;7.80;2.47;;;;;;;6.93;78.34;101741.50;4948179;29;20069;-74
2023/03/15 09:18:15;;;;;;;4.50;2.17;;;;;;;6.93;79.14;101743.34;4948130;29;20023;-73
2023/03/15 09:20:41;;;;;;;6.72;2.05;;;;;;;6.98;78.97;101741.31;4947754;28;20523;-74
2023/03/15 09:23:06;;;;;;;9.45;2.17;;;;;;;6.86;78.43;101737.31;4946502;29;20574;-73
2023/03/15 09:25:32;;;;;;;7.07;2.10;;;;;;;6.78;79.22;101731.34;4945888;28;20043;-74
2023/03/15 09:27:57;;;;;;;5.65;2.38;;;;;;;6.89;77.89;101739.88;4948130;28;20402;-74
2023/03/15 09:30:23;;;;;;;4.53;1.80;;;;;;;7.03;79.67;101744.69;4930530;29;20099;-73
2023/03/15 09:32:50;;;;;;;4.22;1.83;;;;;;;7.04;72.92;101741.94;4936735;29;20043;-74
2023/03/15 09:35:18;;;;;;;8.05;1.83;;;;;;;7.25;78.80;101739.22;4947748;28;20114;-74
2023/03/15 09:37:44;;;;;;;9.25;2.10;;;;;;;7.44;76.83;101740.16;4947539;28;20474;-74
2023/03/15 09:40:27;;;;;;;5.40;2.88;;;;;;;7.67;78.07;101734.59;4945704;29;20050;-74
2023/03/15 09:43:01;;;;;;;;;;;;;;;7.77;80.39;101736.88;4945676;28;20122;-74
2023/03/15 09:45:54;;;;;;;6.93;1.75;;;;;;;7.89;76.70;101750.72;4946721;29;20012;-74
2023/03/15 09:48:31;;;;;;;3.88;1.58;;;;;;;7.78;75.85;101744.91;4948057;28;20410;-74
2023/03/15 09:51:20;;;;;;;8.98;2.20;;;;;;;7.61;76.25;101751.13;4945321;28;20129;-73
2023/03/15 09:53:55;;;;;;;2.50;1.90;;;;;;;7.64;78.35;101748.25;4947475;29;20049;-74
2023/03/15 09:56:36;;;;;;;8.50;2.28;;;;;;;7.85;76.70;101753.66;4946653;28;20058;-74
2023/03/15 09:59:03;;;;;;;7.95;1.95;;;;;;;8.08;76.54;101742.59;4947394;28;20055;-73
2023/03/15 10:01:33;;;;;;;6.63;2.58;;;;;;;8.35;74.97;101753.09;4946374;29;20101;-74
2023/03/15 10:04:06;;;;;;;5.30;1.58;;;;;;;8.53;71.84;101751.31;4953430;28;20170;-73
2023/03/15 10:06:33;;;;;;;9.95;2.28;;;;;;;8.80;73.01;101751.78;4944022;29;20096;-73
2023/03/15 10:09:22;;;;;;;6.88;1.70;;;;;;;9.03;74.69;101737.91;4946753;29;20090;-74
2023/03/15 10:12:09;;;;;;;5.78;1.45;;;;;;;9.33;70.99;101750.84;4946139;29;20046;-74
2023/03/15 10:15:07;;;;;;;4.50;1.50;;;;;;;9.57;71.14;101749.53;4947310;28;20087;-74
2023/03/15 10:18:03;;;;;;;3.80;1.45;;;;;;;9.78;68.61;101754.75;4947442;28;20368;-73
2023/03/15 10:20:35;;;;;;;5.50;2.20;;;;;;;9.89;65.84;101752.34;4947619;28;20053;-74
2023/03/15 10:23:40;;;;;;;7.28;2.10;;;;;;;9.88;65.57;101756.00;4968556;28;20117;-74
2023/03/15 10:26:11;;;;;;;7.88;1.50;;;;;;;9.80;66.49;101750.16;4960550;28;20051;-74
2023/03/15 10:28:38;;;;;;;6.82;1.83;;;;;;;10.01;67.18;101754.38;4949543;28;20518;-74
2023/03/15 10:31:13;;;;;;;7.43;2.22;;;;;;;10.30;64.05;101755.50;4951199;29;20025;-73
2023/03/15 10:33:40;;;;;;;4.38;1.73;;;;;;;10.57;63.57;101753.03;4949907;29;20035;-74
2023/03/15 10:36:24;;;;;;;5.65;1.42;;;;;;;10.76;64.39;101746.53;4950878;28;20107;-74
2023/03/15 10:38:50;;;;;;;7.75;1.70;;;;;;;10.95;61.02;101752.63;4949912;29;20042;-74
2023/03/15 10:41:46;;;;;;;8.50;1.95;;;;;;;11.24;64.81;101754.50;4948679;28;20472;-74
2023/03/15 10:44:15;;;;;;;5.80;1.15;;;;;;;11.47;60.74;101755.81;4936459;29;20051;-75
2023/03/15 10:46:41;;;;;;;4.82;1.52;;;;;;;11.77;60.84;101764.91;4951039;29;20126;-75
2023/03/15 10:49:12;;;;;;;9.10;1.60;;;;;;;11.85;57.48;101765.34;4934720;29;20542;-74
2023/03/15 10:51:43;;;;;;;4.35;1.50;;;;;;;11.93;57.31;101769.28;4950144;28;20043;-74
2023/03/15 10:54:19;;;;;;;6.20;1.40;;;;;;;12.21;61.07;101770.25;4933744;29;20066;-75
2023/03/15 10:56:49;;;;;;;6.63;1.85;;;;;;;12.42;58.69;101774.34;4932142;29;20043;-74
2023/03/15 10:59:25;;;;;;;5.40;1.73;;;;;;;12.61;52.82;101775.88;4944098;29;20098;-74
2023/03/15 11:02:06;;;;;;;4.72;1.13;;;;;;;12.73;52.48;101783.25;4948945;29;20346;-74
2023/03/15 11:04:32;;;;;;;2.58;1.25;;;;;;;12.77;49.17;101785.66;4950782;28;20050;-75
2023/03/15 11:06:57;;;;;;;4.43;1.30;;;;;;;12.31;48.44;101781.47;4957118;28;20329;-74
2023/03/15 11:09:25;;;;;;;2.90;1.00;;;;;;;11.96;47.54;101788.22;4950661;29;20107;-75
2023/03/15 11:12:06;;;;;;;7.82;1.50;;;;;;;11.57;50.74;101782.50;4948798;28;20360;-74
2023/03/15 11:14:40;;;;;;;2.92;1.23;;;;;;;11.02;47.39;101792.16;4946443;29;20039;-75
2023/03/15 11:17:13;;;;;;;8.82;1.52;;;;;;;10.73;53.33;101802.91;4950481;29;20529;-74
2023/03/15 11:19:43;;;;;;;4.03;1.30;;;;;;;10.50;50.50;101797.03;4948541;28;20486;-75
2023/03/15 11:22:12;;;;;;;4.50;1.20;;;;;;;10.22;47.27;101801.25;4946468;29;20117;-74
2023/03/15 11:24:38;;;;;;;6.13;1.13;;;;;;;10.06;49.51;101809.38;4949762;29;20432;-74
2023/03/15 11:27:12;;;;;;;5.80;1.63;;;;;;;10.02;56.44;101805.06;4949229;29;20047;-74
2023/03/15 11:29:44;;;;;;;3.67;1.20;;;;;;;10.10;56.33;101807.38;4950042;28;20051;-75
2023/03/15 11:32:16;;;;;;;3.97;1.27;;;;;;;10.13;56.73;101807.22;4948768;28;20494;-75
2023/03/15 11:34:49;;;;;;;11.10;2.53;;;;;;;10.13;55.95;101804.50;4948587;28;20056;-74
2023/03/15 11:37:27;;;;;;;7.80;1.48;;;;;;;10.07;56.17;101810.25;4949739;28;20039;-74
2023/03/15 11:40:16;;;;;;;7.10;2.15;;;;;;;10.32;57.86;101804.38;4949416;29;20527;-75